Airfield :
LOGIN :

Register | Disclaimer

   EN    FR    IT 

 










Legend :    VFR   Marginal VFR   IFR   Intensive IFR   Very Intensive IFR
Visi :
Ceiling :
>= 8 km
>= 3000ft
5 to 8 km
1000 to 3000 ft
1500m to 5 km
500 to 1000 ft
800 to 1500m
200 to 500 ft
< 800m
< 200 ft
Symbols :   Thunderstorms  Fog  Heavy snow  Heavy precipitations  Wind > 20 kt
SIGMETs :     Misc.  Thunderstorms  Icing  Turbulence  Mountain Waves  Volcanic Ashes






- Airport Elevation : 156 ft
- IATA code : LCC


LIBN - Lecce Galatine (military)

CURRENT METAR :
  • 290855Z 19006KT 9999 SCT025 22/20 Q1008 RMK OVC SCT060 BKN120 VIS MIN 9999 WIND THR14 /////KT WIND THR32 20008KT BLU

EXPIRED METARs :
  • 290755Z 20004KT 9999 SCT025 21/19 Q1007 RMK OVC SCT060 BKN120 VIS MIN 9999 WIND THR14 /////KT WIND THR32 18004KT BLU
  • 290655Z 22003KT 9999 SCT025 21/19 Q1007 RMK OVC SCT060 BKN180 VIS MIN 9999 WIND THR14 /////KT WIND THR32 24002KT BLU

TAF TAF LIBN
Valid from the 29 at 09:00 until the 29 at 18:00 UTC


290800Z 2909/2918 20007KT 9999 SCT025
TEMPO 2910/2915 19015G25KT FEW020CB BKN030



MET'MAP, your aeronautical weather chart ! - Copyright ORBIFLY December 2007 - Disclaimer

ORBIFLY MET'MAP TEAM :

Programming & Development : Alexandra Zaïnal
Original concept : Baudouin d'Aumeries
Technical & hardware support : Manuel Goepfert
Assistance : Marc-Olivier Méhu




SOURCES & CREDITS :

   NOAA